sensor_id;sensor_type;location;lat;lon;timestamp;temperature;humidity
25937;DHT22;13733;51.178;4.450;2023-01-30T00:01:24;6.50;99.90
25937;DHT22;13733;51.178;4.450;2023-01-30T00:03:50;6.60;99.90
25937;DHT22;13733;51.178;4.450;2023-01-30T00:06:16;6.60;99.90
25937;DHT22;13733;51.178;4.450;2023-01-30T00:08:42;6.50;99.90
25937;DHT22;13733;51.178;4.450;2023-01-30T00:11:10;6.40;99.90
25937;DHT22;13733;51.178;4.450;2023-01-30T00:13:37;6.40;99.90
25937;DHT22;13733;51.178;4.450;2023-01-30T00:16:04;6.50;99.90
25937;DHT22;13733;51.178;4.450;2023-01-30T00:18:30;6.60;99.90
25937;DHT22;13733;51.178;4.450;2023-01-30T00:21:02;6.60;99.90
25937;DHT22;13733;51.178;4.450;2023-01-30T00:23:29;6.60;99.90
25937;DHT22;13733;51.178;4.450;2023-01-30T00:25:55;6.60;99.90
25937;DHT22;13733;51.178;4.450;2023-01-30T00:28:21;6.50;99.90
25937;DHT22;13733;51.178;4.450;2023-01-30T00:30:48;6.50;99.90
25937;DHT22;13733;51.178;4.450;2023-01-30T00:33:15;6.50;99.90
25937;DHT22;13733;51.178;4.450;2023-01-30T00:35:44;6.60;99.90
25937;DHT22;13733;51.178;4.450;2023-01-30T00:38:10;6.70;99.90
25937;DHT22;13733;51.178;4.450;2023-01-30T00:40:36;6.70;99.90
25937;DHT22;13733;51.178;4.450;2023-01-30T00:43:01;6.60;99.90
25937;DHT22;13733;51.178;4.450;2023-01-30T00:45:46;6.70;99.90
25937;DHT22;13733;51.178;4.450;2023-01-30T00:48:32;6.70;99.90
25937;DHT22;13733;51.178;4.450;2023-01-30T00:50:59;6.80;99.90
25937;DHT22;13733;51.178;4.450;2023-01-30T00:53:26;6.80;99.90
25937;DHT22;13733;51.178;4.450;2023-01-30T00:55:52;6.80;99.90
25937;DHT22;13733;51.178;4.450;2023-01-30T00:58:19;6.70;99.90
25937;DHT22;13733;51.178;4.450;2023-01-30T01:00:46;6.60;99.90
25937;DHT22;13733;51.178;4.450;2023-01-30T01:03:12;6.60;99.90
25937;DHT22;13733;51.178;4.450;2023-01-30T01:05:38;6.70;99.90
25937;DHT22;13733;51.178;4.450;2023-01-30T01:08:05;6.90;99.90
25937;DHT22;13733;51.178;4.450;2023-01-30T01:10:31;6.90;99.90
25937;DHT22;13733;51.178;4.450;2023-01-30T01:12:57;7.00;99.90
25937;DHT22;13733;51.178;4.450;2023-01-30T01:15:24;7.00;99.90
25937;DHT22;13733;51.178;4.450;2023-01-30T01:17:51;6.80;99.90
25937;DHT22;13733;51.178;4.450;2023-01-30T01:20:18;6.80;99.90
25937;DHT22;13733;51.178;4.450;2023-01-30T01:22:46;6.70;99.90
25937;DHT22;13733;51.178;4.450;2023-01-30T01:25:15;6.80;99.90
25937;DHT22;13733;51.178;4.450;2023-01-30T01:27:41;6.80;99.90
25937;DHT22;13733;51.178;4.450;2023-01-30T01:30:08;6.60;99.90
25937;DHT22;13733;51.178;4.450;2023-01-30T01:32:35;6.70;99.90
25937;DHT22;13733;51.178;4.450;2023-01-30T01:35:01;6.90;99.90
25937;DHT22;13733;51.178;4.450;2023-01-30T01:37:27;6.70;99.90
25937;DHT22;13733;51.178;4.450;2023-01-30T01:39:54;6.80;99.90
25937;DHT22;13733;51.178;4.450;2023-01-30T01:42:39;6.90;99.90
25937;DHT22;13733;51.178;4.450;2023-01-30T01:47:36;6.80;99.90
25937;DHT22;13733;51.178;4.450;2023-01-30T01:50:03;6.90;99.90
25937;DHT22;13733;51.178;4.450;2023-01-30T01:52:29;7.00;99.90
25937;DHT22;13733;51.178;4.450;2023-01-30T01:55:02;7.00;99.90
25937;DHT22;13733;51.178;4.450;2023-01-30T01:58:10;7.20;99.90
25937;DHT22;13733;51.178;4.450;2023-01-30T02:00:38;7.20;99.90
25937;DHT22;13733;51.178;4.450;2023-01-30T02:03:08;7.20;99.90
25937;DHT22;13733;51.178;4.450;2023-01-30T02:05:37;7.20;99.90
25937;DHT22;13733;51.178;4.450;2023-01-30T02:08:07;7.20;99.90
25937;DHT22;13733;51.178;4.450;2023-01-30T02:11:02;7.30;99.90
25937;DHT22;13733;51.178;4.450;2023-01-30T02:13:25;7.40;99.90
25937;DHT22;13733;51.178;4.450;2023-01-30T02:15:54;7.50;99.90
25937;DHT22;13733;51.178;4.450;2023-01-30T02:18:21;7.50;99.90
25937;DHT22;13733;51.178;4.450;2023-01-30T02:48:06;7.60;99.90
25937;DHT22;13733;51.178;4.450;2023-01-30T02:50:46;7.70;99.90
25937;DHT22;13733;51.178;4.450;2023-01-30T02:53:14;7.70;99.90
25937;DHT22;13733;51.178;4.450;2023-01-30T02:55:41;7.60;99.90
25937;DHT22;13733;51.178;4.450;2023-01-30T02:58:08;7.60;99.90
25937;DHT22;13733;51.178;4.450;2023-01-30T03:03:22;7.70;99.90
25937;DHT22;13733;51.178;4.450;2023-01-30T03:11:03;7.80;99.90
25937;DHT22;13733;51.178;4.450;2023-01-30T03:16:08;7.90;99.90
25937;DHT22;13733;51.178;4.450;2023-01-30T03:18:35;7.90;99.90
25937;DHT22;13733;51.178;4.450;2023-01-30T03:21:06;7.90;99.90
25937;DHT22;13733;51.178;4.450;2023-01-30T03:23:33;7.80;99.90
25937;DHT22;13733;51.178;4.450;2023-01-30T03:25:59;7.90;99.90
25937;DHT22;13733;51.178;4.450;2023-01-30T03:28:28;7.90;99.90
25937;DHT22;13733;51.178;4.450;2023-01-30T03:30:55;7.80;99.90
25937;DHT22;13733;51.178;4.450;2023-01-30T03:33:21;7.80;99.90
25937;DHT22;13733;51.178;4.450;2023-01-30T03:35:48;7.60;99.90
25937;DHT22;13733;51.178;4.450;2023-01-30T03:38:14;7.60;99.90
25937;DHT22;13733;51.178;4.450;2023-01-30T03:40:40;7.50;99.90
25937;DHT22;13733;51.178;4.450;2023-01-30T03:43:05;7.40;99.90
25937;DHT22;13733;51.178;4.450;2023-01-30T03:45:34;7.60;99.90
25937;DHT22;13733;51.178;4.450;2023-01-30T03:48:00;7.70;99.90
25937;DHT22;13733;51.178;4.450;2023-01-30T03:50:25;7.70;99.90
25937;DHT22;13733;51.178;4.450;2023-01-30T03:52:51;7.50;99.90
25937;DHT22;13733;51.178;4.450;2023-01-30T03:55:19;7.50;99.90
25937;DHT22;13733;51.178;4.450;2023-01-30T03:57:46;7.60;99.90
25937;DHT22;13733;51.178;4.450;2023-01-30T04:00:13;7.60;99.90
25937;DHT22;13733;51.178;4.450;2023-01-30T04:02:42;7.60;99.90
25937;DHT22;13733;51.178;4.450;2023-01-30T04:05:08;7.60;99.90
25937;DHT22;13733;51.178;4.450;2023-01-30T04:07:35;7.70;99.90
25937;DHT22;13733;51.178;4.450;2023-01-30T04:10:01;7.60;99.90
25937;DHT22;13733;51.178;4.450;2023-01-30T04:12:27;7.60;99.90
25937;DHT22;13733;51.178;4.450;2023-01-30T04:14:56;7.70;99.90
25937;DHT22;13733;51.178;4.450;2023-01-30T04:17:43;7.70;99.90
25937;DHT22;13733;51.178;4.450;2023-01-30T04:20:27;7.70;99.90
25937;DHT22;13733;51.178;4.450;2023-01-30T04:22:55;7.70;99.90
25937;DHT22;13733;51.178;4.450;2023-01-30T04:25:22;7.70;99.90
25937;DHT22;13733;51.178;4.450;2023-01-30T04:27:48;7.60;99.90
25937;DHT22;13733;51.178;4.450;2023-01-30T04:30:19;7.60;99.90
25937;DHT22;13733;51.178;4.450;2023-01-30T04:32:46;7.60;99.90
25937;DHT22;13733;51.178;4.450;2023-01-30T04:35:12;7.80;99.90
25937;DHT22;13733;51.178;4.450;2023-01-30T04:37:39;7.90;99.90
25937;DHT22;13733;51.178;4.450;2023-01-30T04:40:07;7.80;99.90
25937;DHT22;13733;51.178;4.450;2023-01-30T04:42:33;7.70;99.90
25937;DHT22;13733;51.178;4.450;2023-01-30T04:45:18;7.80;99.90
25937;DHT22;13733;51.178;4.450;2023-01-30T04:47:44;7.90;99.90
25937;DHT22;13733;51.178;4.450;2023-01-30T04:50:09;7.80;99.90
25937;DHT22;13733;51.178;4.450;2023-01-30T04:52:36;7.80;99.90
25937;DHT22;13733;51.178;4.450;2023-01-30T04:55:02;7.80;99.90
25937;DHT22;13733;51.178;4.450;2023-01-30T04:57:29;7.80;99.90
25937;DHT22;13733;51.178;4.450;2023-01-30T04:59:54;7.80;99.90
25937;DHT22;13733;51.178;4.450;2023-01-30T05:02:21;8.00;99.90
25937;DHT22;13733;51.178;4.450;2023-01-30T05:04:48;8.10;99.90
25937;DHT22;13733;51.178;4.450;2023-01-30T05:07:14;8.10;99.90
25937;DHT22;13733;51.178;4.450;2023-01-30T05:09:40;8.00;99.90
25937;DHT22;13733;51.178;4.450;2023-01-30T05:12:06;8.20;99.90
25937;DHT22;13733;51.178;4.450;2023-01-30T05:14:31;8.10;99.90
25937;DHT22;13733;51.178;4.450;2023-01-30T05:16:57;8.00;99.90
25937;DHT22;13733;51.178;4.450;2023-01-30T05:19:23;8.00;99.90
25937;DHT22;13733;51.178;4.450;2023-01-30T05:21:48;8.10;99.90
25937;DHT22;13733;51.178;4.450;2023-01-30T05:24:14;8.20;99.90
25937;DHT22;13733;51.178;4.450;2023-01-30T05:26:39;8.20;99.90
25937;DHT22;13733;51.178;4.450;2023-01-30T05:29:05;8.10;99.90
25937;DHT22;13733;51.178;4.450;2023-01-30T05:31:31;8.30;99.90
25937;DHT22;13733;51.178;4.450;2023-01-30T05:33:56;8.30;99.90
25937;DHT22;13733;51.178;4.450;2023-01-30T05:36:22;8.20;99.90
25937;DHT22;13733;51.178;4.450;2023-01-30T05:38:48;8.10;99.90
25937;DHT22;13733;51.178;4.450;2023-01-30T05:41:15;8.10;99.90
25937;DHT22;13733;51.178;4.450;2023-01-30T05:43:41;8.00;99.90
25937;DHT22;13733;51.178;4.450;2023-01-30T05:46:10;7.90;99.90
25937;DHT22;13733;51.178;4.450;2023-01-30T05:48:36;8.10;99.90
25937;DHT22;13733;51.178;4.450;2023-01-30T05:51:02;8.00;99.90
25937;DHT22;13733;51.178;4.450;2023-01-30T05:53:30;8.00;99.90
25937;DHT22;13733;51.178;4.450;2023-01-30T05:56:04;8.00;99.90
25937;DHT22;13733;51.178;4.450;2023-01-30T05:58:31;8.10;99.90
25937;DHT22;13733;51.178;4.450;2023-01-30T06:01:04;8.10;99.90
25937;DHT22;13733;51.178;4.450;2023-01-30T06:03:31;8.10;99.90
25937;DHT22;13733;51.178;4.450;2023-01-30T06:05:57;8.00;99.90
25937;DHT22;13733;51.178;4.450;2023-01-30T06:08:23;8.10;99.90
25937;DHT22;13733;51.178;4.450;2023-01-30T06:10:48;8.30;99.90
25937;DHT22;13733;51.178;4.450;2023-01-30T06:13:14;8.40;99.90
25937;DHT22;13733;51.178;4.450;2023-01-30T06:15:40;8.30;99.90
25937;DHT22;13733;51.178;4.450;2023-01-30T06:18:06;8.40;99.90
25937;DHT22;13733;51.178;4.450;2023-01-30T06:20:31;8.40;99.90
25937;DHT22;13733;51.178;4.450;2023-01-30T06:22:57;8.50;99.90
25937;DHT22;13733;51.178;4.450;2023-01-30T06:25:23;8.50;99.90
25937;DHT22;13733;51.178;4.450;2023-01-30T06:27:48;8.50;99.90
25937;DHT22;13733;51.178;4.450;2023-01-30T06:30:14;8.40;99.90
25937;DHT22;13733;51.178;4.450;2023-01-30T06:32:40;8.50;99.90
25937;DHT22;13733;51.178;4.450;2023-01-30T06:35:07;8.60;99.90
25937;DHT22;13733;51.178;4.450;2023-01-30T06:37:33;8.50;99.90
25937;DHT22;13733;51.178;4.450;2023-01-30T06:39:59;8.40;99.90
25937;DHT22;13733;51.178;4.450;2023-01-30T06:42:24;8.50;99.90
25937;DHT22;13733;51.178;4.450;2023-01-30T06:44:50;8.60;99.90
25937;DHT22;13733;51.178;4.450;2023-01-30T06:47:16;8.70;99.90
25937;DHT22;13733;51.178;4.450;2023-01-30T06:49:41;8.80;99.90
25937;DHT22;13733;51.178;4.450;2023-01-30T06:52:07;8.60;99.90
25937;DHT22;13733;51.178;4.450;2023-01-30T06:54:33;8.40;99.90
25937;DHT22;13733;51.178;4.450;2023-01-30T06:57:00;8.30;99.90
25937;DHT22;13733;51.178;4.450;2023-01-30T06:59:25;8.40;99.90
25937;DHT22;13733;51.178;4.450;2023-01-30T07:01:51;8.40;99.90
25937;DHT22;13733;51.178;4.450;2023-01-30T07:04:18;8.40;99.90
25937;DHT22;13733;51.178;4.450;2023-01-30T07:06:43;8.40;99.90
25937;DHT22;13733;51.178;4.450;2023-01-30T07:09:11;8.30;99.90
25937;DHT22;13733;51.178;4.450;2023-01-30T07:11:38;8.30;99.90
25937;DHT22;13733;51.178;4.450;2023-01-30T07:14:03;8.30;99.90
25937;DHT22;13733;51.178;4.450;2023-01-30T07:16:29;8.10;99.90
25937;DHT22;13733;51.178;4.450;2023-01-30T07:18:55;8.00;99.90
25937;DHT22;13733;51.178;4.450;2023-01-30T07:21:24;8.00;99.90
25937;DHT22;13733;51.178;4.450;2023-01-30T07:23:51;8.10;99.90
25937;DHT22;13733;51.178;4.450;2023-01-30T07:26:17;8.20;99.90
25937;DHT22;13733;51.178;4.450;2023-01-30T07:28:42;8.20;99.90
25937;DHT22;13733;51.178;4.450;2023-01-30T07:31:08;8.10;99.90
25937;DHT22;13733;51.178;4.450;2023-01-30T07:33:34;7.90;99.90
25937;DHT22;13733;51.178;4.450;2023-01-30T07:35:59;7.80;99.90
25937;DHT22;13733;51.178;4.450;2023-01-30T07:38:25;8.00;99.90
25937;DHT22;13733;51.178;4.450;2023-01-30T07:40:51;8.10;99.90
25937;DHT22;13733;51.178;4.450;2023-01-30T07:43:16;8.10;99.90
25937;DHT22;13733;51.178;4.450;2023-01-30T07:45:47;8.20;99.90
25937;DHT22;13733;51.178;4.450;2023-01-30T07:48:15;8.10;99.90
25937;DHT22;13733;51.178;4.450;2023-01-30T07:50:41;8.20;99.90
25937;DHT22;13733;51.178;4.450;2023-01-30T07:53:09;8.20;99.90
25937;DHT22;13733;51.178;4.450;2023-01-30T07:55:35;8.00;99.90
25937;DHT22;13733;51.178;4.450;2023-01-30T07:58:01;8.10;99.90
25937;DHT22;13733;51.178;4.450;2023-01-30T08:00:27;8.10;99.90
25937;DHT22;13733;51.178;4.450;2023-01-30T08:02:53;8.10;99.90
25937;DHT22;13733;51.178;4.450;2023-01-30T08:05:19;8.00;99.90
25937;DHT22;13733;51.178;4.450;2023-01-30T08:07:44;7.80;99.90
25937;DHT22;13733;51.178;4.450;2023-01-30T08:10:12;7.80;99.90
25937;DHT22;13733;51.178;4.450;2023-01-30T08:12:39;7.80;99.90
25937;DHT22;13733;51.178;4.450;2023-01-30T08:15:09;7.90;99.90
25937;DHT22;13733;51.178;4.450;2023-01-30T08:17:35;7.90;99.90
25937;DHT22;13733;51.178;4.450;2023-01-30T08:20:01;7.90;99.90
25937;DHT22;13733;51.178;4.450;2023-01-30T08:22:27;7.80;99.90
25937;DHT22;13733;51.178;4.450;2023-01-30T08:24:53;7.90;99.90
25937;DHT22;13733;51.178;4.450;2023-01-30T08:27:19;8.10;99.90
25937;DHT22;13733;51.178;4.450;2023-01-30T08:29:44;8.20;99.90
25937;DHT22;13733;51.178;4.450;2023-01-30T08:32:10;8.10;99.90
25937;DHT22;13733;51.178;4.450;2023-01-30T08:34:36;7.90;99.90
25937;DHT22;13733;51.178;4.450;2023-01-30T08:37:02;7.90;99.90
25937;DHT22;13733;51.178;4.450;2023-01-30T08:39:28;7.90;99.90
25937;DHT22;13733;51.178;4.450;2023-01-30T08:41:53;7.80;99.90
25937;DHT22;13733;51.178;4.450;2023-01-30T08:44:19;7.80;99.90
25937;DHT22;13733;51.178;4.450;2023-01-30T08:46:45;7.80;99.90
25937;DHT22;13733;51.178;4.450;2023-01-30T08:49:11;7.90;99.90
25937;DHT22;13733;51.178;4.450;2023-01-30T08:51:36;7.90;99.90
25937;DHT22;13733;51.178;4.450;2023-01-30T08:54:02;7.90;99.90
25937;DHT22;13733;51.178;4.450;2023-01-30T08:56:28;7.90;99.90
25937;DHT22;13733;51.178;4.450;2023-01-30T08:58:53;7.90;99.90
25937;DHT22;13733;51.178;4.450;2023-01-30T09:01:20;7.90;99.90
25937;DHT22;13733;51.178;4.450;2023-01-30T09:03:46;8.10;99.90
25937;DHT22;13733;51.178;4.450;2023-01-30T09:06:12;8.10;99.90
25937;DHT22;13733;51.178;4.450;2023-01-30T09:08:39;8.20;99.90
25937;DHT22;13733;51.178;4.450;2023-01-30T09:11:05;8.40;99.90
25937;DHT22;13733;51.178;4.450;2023-01-30T09:13:33;8.40;99.90
25937;DHT22;13733;51.178;4.450;2023-01-30T09:15:59;8.20;99.90
25937;DHT22;13733;51.178;4.450;2023-01-30T09:18:24;8.30;99.90
25937;DHT22;13733;51.178;4.450;2023-01-30T09:20:50;8.30;99.90
25937;DHT22;13733;51.178;4.450;2023-01-30T09:23:16;8.40;99.90
25937;DHT22;13733;51.178;4.450;2023-01-30T09:25:45;8.40;99.90
25937;DHT22;13733;51.178;4.450;2023-01-30T09:28:11;8.40;99.90
25937;DHT22;13733;51.178;4.450;2023-01-30T09:30:37;8.50;99.90
25937;DHT22;13733;51.178;4.450;2023-01-30T09:33:03;8.50;99.90
25937;DHT22;13733;51.178;4.450;2023-01-30T09:35:29;8.60;99.90
25937;DHT22;13733;51.178;4.450;2023-01-30T09:37:55;8.80;99.90
25937;DHT22;13733;51.178;4.450;2023-01-30T09:40:27;8.80;99.90
25937;DHT22;13733;51.178;4.450;2023-01-30T09:43:20;8.60;99.90
25937;DHT22;13733;51.178;4.450;2023-01-30T09:46:04;8.60;99.90
25937;DHT22;13733;51.178;4.450;2023-01-30T09:54:18;8.80;99.90
25937;DHT22;13733;51.178;4.450;2023-01-30T09:56:51;8.90;99.90
25937;DHT22;13733;51.178;4.450;2023-01-30T09:59:30;9.00;99.90
25937;DHT22;13733;51.178;4.450;2023-01-30T10:02:23;9.00;99.90
25937;DHT22;13733;51.178;4.450;2023-01-30T10:04:49;8.80;99.90
25937;DHT22;13733;51.178;4.450;2023-01-30T10:18:02;9.30;99.90
25937;DHT22;13733;51.178;4.450;2023-01-30T10:23:29;9.50;99.90
25937;DHT22;13733;51.178;4.450;2023-01-30T10:26:00;9.60;99.90
25937;DHT22;13733;51.178;4.450;2023-01-30T10:28:38;9.60;99.90
25937;DHT22;13733;51.178;4.450;2023-01-30T10:31:10;9.60;99.90
25937;DHT22;13733;51.178;4.450;2023-01-30T10:34:01;9.50;99.90
25937;DHT22;13733;51.178;4.450;2023-01-30T10:36:40;9.70;99.90
25937;DHT22;13733;51.178;4.450;2023-01-30T10:39:20;9.70;99.90
25937;DHT22;13733;51.178;4.450;2023-01-30T10:42:11;9.80;99.90
25937;DHT22;13733;51.178;4.450;2023-01-30T10:44:39;10.00;99.90
25937;DHT22;13733;51.178;4.450;2023-01-30T10:49:43;10.10;99.90
25937;DHT22;13733;51.178;4.450;2023-01-30T10:57:55;10.30;99.90
25937;DHT22;13733;51.178;4.450;2023-01-30T11:06:00;10.50;99.90
25937;DHT22;13733;51.178;4.450;2023-01-30T11:08:30;10.60;99.90
25937;DHT22;13733;51.178;4.450;2023-01-30T11:10:58;10.50;99.90
25937;DHT22;13733;51.178;4.450;2023-01-30T11:15:55;10.40;99.90
25937;DHT22;13733;51.178;4.450;2023-01-30T11:18:22;10.70;99.90
25937;DHT22;13733;51.178;4.450;2023-01-30T11:21:00;10.70;99.90
25937;DHT22;13733;51.178;4.450;2023-01-30T11:23:33;10.70;99.90
25937;DHT22;13733;51.178;4.450;2023-01-30T11:26:01;10.50;99.90
25937;DHT22;13733;51.178;4.450;2023-01-30T11:28:27;10.50;99.90
25937;DHT22;13733;51.178;4.450;2023-01-30T11:30:59;10.60;99.90
25937;DHT22;13733;51.178;4.450;2023-01-30T11:33:36;10.70;99.90
25937;DHT22;13733;51.178;4.450;2023-01-30T11:36:08;10.70;99.90
25937;DHT22;13733;51.178;4.450;2023-01-30T11:38:56;10.60;99.90
25937;DHT22;13733;51.178;4.450;2023-01-30T11:41:22;10.40;99.90
25937;DHT22;13733;51.178;4.450;2023-01-30T11:43:48;10.30;99.90
25937;DHT22;13733;51.178;4.450;2023-01-30T11:46:19;10.20;99.90
25937;DHT22;13733;51.178;4.450;2023-01-30T11:48:50;10.10;99.90
25937;DHT22;13733;51.178;4.450;2023-01-30T11:51:20;10.10;99.90
25937;DHT22;13733;51.178;4.450;2023-01-30T11:53:58;10.00;99.90
25937;DHT22;13733;51.178;4.450;2023-01-30T11:56:40;10.00;99.90
25937;DHT22;13733;51.178;4.450;2023-01-30T12:01:47;10.30;99.90
25937;DHT22;13733;51.178;4.450;2023-01-30T12:04:13;10.30;99.90
25937;DHT22;13733;51.178;4.450;2023-01-30T12:06:41;10.10;99.90
25937;DHT22;13733;51.178;4.450;2023-01-30T12:09:33;10.20;99.90
25937;DHT22;13733;51.178;4.450;2023-01-30T12:11:59;10.30;99.90
25937;DHT22;13733;51.178;4.450;2023-01-30T12:14:44;10.20;99.90
25937;DHT22;13733;51.178;4.450;2023-01-30T12:17:19;10.30;99.90
25937;DHT22;13733;51.178;4.450;2023-01-30T12:25:54;10.10;99.90
25937;DHT22;13733;51.178;4.450;2023-01-30T12:31:47;10.10;99.90
25937;DHT22;13733;51.178;4.450;2023-01-30T12:34:14;10.20;99.90
25937;DHT22;13733;51.178;4.450;2023-01-30T12:42:40;10.10;99.90
25937;DHT22;13733;51.178;4.450;2023-01-30T12:45:27;10.30;99.90
25937;DHT22;13733;51.178;4.450;2023-01-30T12:48:20;10.20;99.90
25937;DHT22;13733;51.178;4.450;2023-01-30T12:51:04;10.30;99.90
25937;DHT22;13733;51.178;4.450;2023-01-30T12:56:51;10.10;99.90
25937;DHT22;13733;51.178;4.450;2023-01-30T13:05:03;10.70;99.90
25937;DHT22;13733;51.178;4.450;2023-01-30T13:10:38;11.20;99.90
25937;DHT22;13733;51.178;4.450;2023-01-30T13:16:05;11.80;99.90
25937;DHT22;13733;51.178;4.450;2023-01-30T13:18:49;11.80;99.90
25937;DHT22;13733;51.178;4.450;2023-01-30T13:21:35;11.40;99.90
25937;DHT22;13733;51.178;4.450;2023-01-30T13:24:16;11.10;99.90
25937;DHT22;13733;51.178;4.450;2023-01-30T13:26:44;10.90;99.90
25937;DHT22;13733;51.178;4.450;2023-01-30T13:29:35;10.90;99.90
25937;DHT22;13733;51.178;4.450;2023-01-30T13:32:50;11.00;99.90
25937;DHT22;13733;51.178;4.450;2023-01-30T13:34:52;11.10;99.90
25937;DHT22;13733;51.178;4.450;2023-01-30T13:37:19;10.90;99.90
25937;DHT22;13733;51.178;4.450;2023-01-30T13:39:47;10.80;99.90
25937;DHT22;13733;51.178;4.450;2023-01-30T13:44:53;10.50;99.90
25937;DHT22;13733;51.178;4.450;2023-01-30T13:50:09;11.00;99.90
25937;DHT22;13733;51.178;4.450;2023-01-30T13:52:54;11.90;99.90
25937;DHT22;13733;51.178;4.450;2023-01-30T13:55:39;12.40;99.90
25937;DHT22;13733;51.178;4.450;2023-01-30T13:58:26;12.90;99.90
25937;DHT22;13733;51.178;4.450;2023-01-30T14:00:55;13.70;99.90
25937;DHT22;13733;51.178;4.450;2023-01-30T14:03:33;14.50;99.90
25937;DHT22;13733;51.178;4.450;2023-01-30T14:06:00;14.90;98.80
25937;DHT22;13733;51.178;4.450;2023-01-30T14:08:29;14.70;98.80
25937;DHT22;13733;51.178;4.450;2023-01-30T14:10:58;15.20;97.00
25937;DHT22;13733;51.178;4.450;2023-01-30T14:13:26;16.20;95.50
25937;DHT22;13733;51.178;4.450;2023-01-30T14:15:53;16.50;92.50
25937;DHT22;13733;51.178;4.450;2023-01-30T14:18:33;16.60;90.80
25937;DHT22;13733;51.178;4.450;2023-01-30T14:21:19;16.60;88.70
25937;DHT22;13733;51.178;4.450;2023-01-30T14:24:00;16.00;89.80
25937;DHT22;13733;51.178;4.450;2023-01-30T14:34:40;14.90;93.40
25937;DHT22;13733;51.178;4.450;2023-01-30T14:39:55;13.10;99.50
25937;DHT22;13733;51.178;4.450;2023-01-30T14:42:26;12.70;99.90
25937;DHT22;13733;51.178;4.450;2023-01-30T14:45:14;12.60;99.90
25937;DHT22;13733;51.178;4.450;2023-01-30T14:47:40;12.60;99.90
25937;DHT22;13733;51.178;4.450;2023-01-30T14:50:21;12.20;99.90
25937;DHT22;13733;51.178;4.450;2023-01-30T14:52:48;12.10;99.90
25937;DHT22;13733;51.178;4.450;2023-01-30T14:55:21;12.00;99.90
25937;DHT22;13733;51.178;4.450;2023-01-30T14:58:00;12.10;99.90
25937;DHT22;13733;51.178;4.450;2023-01-30T15:00:30;12.90;99.90
25937;DHT22;13733;51.178;4.450;2023-01-30T15:03:03;13.40;99.90
25937;DHT22;13733;51.178;4.450;2023-01-30T15:05:41;13.30;99.90
25937;DHT22;13733;51.178;4.450;2023-01-30T15:08:12;12.80;99.90
25937;DHT22;13733;51.178;4.450;2023-01-30T15:14:14;11.60;99.90
25937;DHT22;13733;51.178;4.450;2023-01-30T15:19:20;10.80;99.90
25937;DHT22;13733;51.178;4.450;2023-01-30T15:22:18;10.50;99.90
25937;DHT22;13733;51.178;4.450;2023-01-30T15:28:00;10.20;99.90
25937;DHT22;13733;51.178;4.450;2023-01-30T15:30:42;10.10;99.90
25937;DHT22;13733;51.178;4.450;2023-01-30T15:33:18;10.10;99.90
25937;DHT22;13733;51.178;4.450;2023-01-30T15:35:45;10.00;99.90
25937;DHT22;13733;51.178;4.450;2023-01-30T15:38:33;9.90;99.90
25937;DHT22;13733;51.178;4.450;2023-01-30T15:41:03;9.90;99.90
25937;DHT22;13733;51.178;4.450;2023-01-30T15:49:05;9.80;99.90
25937;DHT22;13733;51.178;4.450;2023-01-30T15:51:35;9.80;99.90
25937;DHT22;13733;51.178;4.450;2023-01-30T15:54:08;9.80;99.90
25937;DHT22;13733;51.178;4.450;2023-01-30T15:56:34;9.90;99.90
25937;DHT22;13733;51.178;4.450;2023-01-30T15:59:01;9.90;99.90
25937;DHT22;13733;51.178;4.450;2023-01-30T16:01:28;9.90;99.90
25937;DHT22;13733;51.178;4.450;2023-01-30T16:03:54;9.90;99.90
25937;DHT22;13733;51.178;4.450;2023-01-30T16:06:34;9.90;99.90
25937;DHT22;13733;51.178;4.450;2023-01-30T16:09:05;9.80;99.90
25937;DHT22;13733;51.178;4.450;2023-01-30T16:11:41;9.80;99.90
25937;DHT22;13733;51.178;4.450;2023-01-30T16:14:13;9.80;99.90
25937;DHT22;13733;51.178;4.450;2023-01-30T16:19:41;10.00;99.90
25937;DHT22;13733;51.178;4.450;2023-01-30T16:22:15;10.10;99.90
25937;DHT22;13733;51.178;4.450;2023-01-30T16:24:45;9.90;99.90
25937;DHT22;13733;51.178;4.450;2023-01-30T16:27:32;9.90;99.90
25937;DHT22;13733;51.178;4.450;2023-01-30T16:30:02;9.80;99.90
25937;DHT22;13733;51.178;4.450;2023-01-30T16:32:33;9.70;99.90
25937;DHT22;13733;51.178;4.450;2023-01-30T16:37:49;9.50;99.90
25937;DHT22;13733;51.178;4.450;2023-01-30T16:40:17;9.40;99.90
25937;DHT22;13733;51.178;4.450;2023-01-30T16:43:01;9.40;99.90
25937;DHT22;13733;51.178;4.450;2023-01-30T16:53:24;9.20;99.90
25937;DHT22;13733;51.178;4.450;2023-01-30T16:56:08;9.00;99.90
25937;DHT22;13733;51.178;4.450;2023-01-30T16:58:35;9.10;99.90
25937;DHT22;13733;51.178;4.450;2023-01-30T17:01:04;9.10;99.90
25937;DHT22;13733;51.178;4.450;2023-01-30T17:03:35;9.00;99.90
25937;DHT22;13733;51.178;4.450;2023-01-30T17:06:06;9.00;99.90
25937;DHT22;13733;51.178;4.450;2023-01-30T17:08:50;8.90;99.90
25937;DHT22;13733;51.178;4.450;2023-01-30T17:11:39;8.90;99.90
25937;DHT22;13733;51.178;4.450;2023-01-30T17:16:46;8.80;99.90
25937;DHT22;13733;51.178;4.450;2023-01-30T17:19:13;8.70;99.90
25937;DHT22;13733;51.178;4.450;2023-01-30T17:21:49;8.70;99.90
25937;DHT22;13733;51.178;4.450;2023-01-30T17:24:18;8.70;99.90
25937;DHT22;13733;51.178;4.450;2023-01-30T17:26:46;8.60;99.90
25937;DHT22;13733;51.178;4.450;2023-01-30T17:29:14;8.60;99.90
25937;DHT22;13733;51.178;4.450;2023-01-30T17:31:47;8.60;99.90
25937;DHT22;13733;51.178;4.450;2023-01-30T17:34:14;8.50;99.90
25937;DHT22;13733;51.178;4.450;2023-01-30T17:36:40;8.70;99.90
25937;DHT22;13733;51.178;4.450;2023-01-30T17:39:20;8.60;99.90
25937;DHT22;13733;51.178;4.450;2023-01-30T17:41:47;8.50;99.90
25937;DHT22;13733;51.178;4.450;2023-01-30T17:44:13;8.40;99.90
25937;DHT22;13733;51.178;4.450;2023-01-30T17:46:40;8.50;99.90
25937;DHT22;13733;51.178;4.450;2023-01-30T17:49:22;8.60;99.90
25937;DHT22;13733;51.178;4.450;2023-01-30T17:51:49;8.50;99.90
25937;DHT22;13733;51.178;4.450;2023-01-30T17:54:16;8.50;99.90
25937;DHT22;13733;51.178;4.450;2023-01-30T17:56:44;8.40;99.90
25937;DHT22;13733;51.178;4.450;2023-01-30T17:59:15;8.40;99.90
25937;DHT22;13733;51.178;4.450;2023-01-30T18:01:43;8.40;99.90
25937;DHT22;13733;51.178;4.450;2023-01-30T18:04:09;8.20;99.90
25937;DHT22;13733;51.178;4.450;2023-01-30T18:06:36;8.20;99.90
25937;DHT22;13733;51.178;4.450;2023-01-30T18:09:02;8.20;99.90
25937;DHT22;13733;51.178;4.450;2023-01-30T18:11:28;8.30;99.90
25937;DHT22;13733;51.178;4.450;2023-01-30T18:13:54;8.10;99.90
25937;DHT22;13733;51.178;4.450;2023-01-30T18:16:26;8.10;99.90
25937;DHT22;13733;51.178;4.450;2023-01-30T18:18:56;8.00;99.90
25937;DHT22;13733;51.178;4.450;2023-01-30T18:21:22;7.70;99.90
25937;DHT22;13733;51.178;4.450;2023-01-30T18:23:48;7.80;99.90
25937;DHT22;13733;51.178;4.450;2023-01-30T18:26:15;7.90;99.90
25937;DHT22;13733;51.178;4.450;2023-01-30T18:28:40;8.00;99.90
25937;DHT22;13733;51.178;4.450;2023-01-30T18:31:09;7.90;99.90
25937;DHT22;13733;51.178;4.450;2023-01-30T18:33:36;7.80;99.90
25937;DHT22;13733;51.178;4.450;2023-01-30T18:36:04;7.80;99.90